Time;durP1;ratioP1;P1;durP2;ratioP2;P2;SDS_P1;SDS_P2;PMS_P1;PMS_P2;Temp;Humidity;BMP_temperature;BMP_pressure;BME280_temperature;BME280_humidity;BME280_pressure;Samples;Min_cycle;Max_cycle;Signal;HPM_P1;HPM_P2
2022/08/26 00:02:04;;;;;;;;;;;;;;;25.30;43.44;99993.75;5038868;28;20557;-77
2022/08/26 00:04:31;;;;;;;;;;;;;;;25.19;43.21;99991.78;5036582;28;19947;-87
2022/08/26 00:06:56;;;;;;;;;;;;;;;25.13;43.75;99992.19;5035719;28;19924;-79
2022/08/26 00:09:23;;;;;;;;;;;;;;;25.22;43.28;99987.09;5023196;28;19925;-75
2022/08/26 00:11:48;;;;;;;;;;;;;;;25.21;43.59;99989.88;5037027;28;19924;-77
2022/08/26 00:14:15;;;;;;;;;;;;;;;24.99;44.60;99977.88;5038105;28;19964;-77
2022/08/26 00:16:40;;;;;;;;;;;;;;;24.99;45.55;99971.63;5036098;28;19932;-77
2022/08/26 00:19:06;;;;;;;;;;;;;;;25.00;46.04;99979.56;5034086;28;19954;-78
2022/08/26 00:21:31;;;;;;;;;;;;;;;24.74;46.92;99967.88;5033779;28;19924;-75
2022/08/26 00:23:56;;;;;;;;;;;;;;;24.71;47.28;99969.94;5030267;28;20405;-74
2022/08/26 00:26:21;;;;;;;;;;;;;;;24.69;47.85;99958.44;5036941;28;19921;-84
2022/08/26 00:28:48;;;;;;;;;;;;;;;24.88;47.95;99958.94;5037385;28;19931;-87
2022/08/26 00:31:13;;;;;;;;;;;;;;;24.51;49.06;99964.03;5037396;28;19920;-75
2022/08/26 00:33:39;;;;;;;;;;;;;;;24.43;48.81;99959.13;5036944;28;19932;-78
2022/08/26 00:36:05;;;;;;;;;;;;;;;24.67;47.33;99953.16;5001770;28;19995;-75
2022/08/26 00:38:30;;;;;;;;;;;;;;;24.70;47.51;99955.66;5037992;28;19931;-76
2022/08/26 00:40:56;;;;;;;;;;;;;;;24.42;46.95;99959.25;5036654;28;20399;-76
2022/08/26 00:43:22;;;;;;;;;;;;;;;24.47;45.60;99957.16;5036771;28;19925;-82
2022/08/26 00:45:51;;;;;;;;;;;;;;;24.49;45.33;99954.38;5040106;28;19920;-78
2022/08/26 00:48:18;;;;;;;;;;;;;;;24.47;45.17;99961.66;5040145;28;19951;-78
2022/08/26 00:50:55;;;;;;;;;;;;;;;24.65;44.79;99955.06;5035449;28;19917;-74
2022/08/26 00:53:23;;;;;;;;;;;;;;;24.73;44.32;99952.78;5019013;28;20264;-76
2022/08/26 00:56:03;;;;;;;;;;;;;;;24.41;45.11;99947.66;5036160;28;19924;-76
2022/08/26 00:58:30;;;;;;;;;;;;;;;24.20;45.51;99952.56;5035395;28;20368;-74
2022/08/26 01:00:56;;;;;;;;;;;;;;;24.53;44.83;99951.38;5035505;28;19932;-86
2022/08/26 01:03:24;;;;;;;;;;;;;;;24.31;45.14;99949.22;5037376;28;19920;-86
2022/08/26 01:05:52;;;;;;;;;;;;;;;24.53;44.76;99953.22;5038210;28;19925;-78
2022/08/26 01:08:17;;;;;;;;;;;;;;;24.50;44.59;99954.28;5035752;28;19929;-87
2022/08/26 01:10:42;;;;;;;;;;;;;;;24.52;45.15;99952.34;5039593;28;19925;-86
2022/08/26 01:13:10;;;;;;;;;;;;;;;24.49;44.70;99955.25;5034802;28;19921;-86
2022/08/26 01:15:39;;;;;;;;;;;;;;;24.12;45.59;99951.38;5036017;28;19925;-75
2022/08/26 01:18:05;;;;;;;;;;;;;;;24.04;45.52;99945.63;5015183;28;19943;-77
2022/08/26 01:20:37;;;;;;;;;;;;;;;24.10;45.22;99947.91;5035685;28;22106;-78
2022/08/26 01:23:04;;;;;;;;;;;;;;;24.28;44.14;99944.06;5034968;28;20360;-75
2022/08/26 01:25:32;;;;;;;;;;;;;;;24.26;44.73;99939.75;5035572;28;20299;-74
2022/08/26 01:27:58;;;;;;;;;;;;;;;24.22;43.88;99945.31;5034374;28;20011;-81
2022/08/26 01:30:25;;;;;;;;;;;;;;;24.19;44.22;99944.66;5034030;28;19932;-73
2022/08/26 01:32:51;;;;;;;;;;;;;;;23.96;44.40;99941.59;5031382;28;19931;-73
2022/08/26 01:35:17;;;;;;;;;;;;;;;24.07;44.77;99945.41;5034434;28;19921;-75
2022/08/26 01:37:43;;;;;;;;;;;;;;;24.17;45.01;99947.41;5034772;28;19925;-74
2022/08/26 01:40:11;;;;;;;;;;;;;;;24.02;44.20;99951.94;5034205;28;20027;-84
2022/08/26 01:42:36;;;;;;;;;;;;;;;24.09;43.50;99946.19;5033663;28;19921;-79
2022/08/26 01:45:17;;;;;;;;;;;;;;;24.00;43.98;99942.28;5036357;28;19998;-77
2022/08/26 01:47:43;;;;;;;;;;;;;;;23.75;44.91;99946.50;5035151;28;19928;-83
2022/08/26 01:50:12;;;;;;;;;;;;;;;23.80;45.06;99943.53;5032475;28;20656;-81
2022/08/26 01:52:39;;;;;;;;;;;;;;;23.90;44.29;99938.44;5034345;28;19924;-77
2022/08/26 01:55:05;;;;;;;;;;;;;;;24.08;44.27;99933.75;5032606;28;19929;-75
2022/08/26 01:57:31;;;;;;;;;;;;;;;23.90;44.49;99936.63;5035611;28;19924;-76
2022/08/26 01:59:58;;;;;;;;;;;;;;;23.90;44.24;99938.44;5016240;28;19966;-74
2022/08/26 02:02:24;;;;;;;;;;;;;;;23.93;44.51;99943.63;5032080;28;19936;-77
2022/08/26 02:04:52;;;;;;;;;;;;;;;23.85;44.63;99943.25;5032988;28;19925;-86
2022/08/26 02:07:19;;;;;;;;;;;;;;;23.98;44.35;99938.84;5035336;28;20030;-76
